Latest Weather Observations for Wilcannia Airport

IDN60801

Issued at 7:02 pm EST Sunday 24 May 2015 (issued every 30 minutes, with the page automatically refreshed every 10 minutes)

About weather observations | Map of weather stations | Latest weather observations for NSW | Other Formats
Station Details ID: 046012 Name: WILCANNIA AERODROME AWS Lat: -31.52 Lon: 143.38 Height: 94.3 m
Data from the previous 72 hours. | See also: Recent months for locations in New South Wales
Date/Time
EST
Temp
°C
App
Temp
°C
Dew
Point
Rel
Hum
%
Delta-T
°C
Wind Press
QNH
hPa
Press
MSL
hPa
Rain
since 9 am
mm
Dir
 
Spd
km/h
Gust
km/h
Spd
kts
Gust
kts
24/07:00pm 11.0 9.0 7.3 78 1.8 ESE 7 9 4 5 1029.2 1029.2 0.0
24/06:30pm 12.0 9.6 7.1 72 2.3 ESE 9 11 5 6 1028.8 1028.8 0.0
24/06:00pm 13.5 10.5 7.5 67 2.9 E 13 13 7 7 1028.3 1028.3 0.0
24/05:30pm 15.7 13.5 8.0 60 3.9 E 9 11 5 6 1028.3 1028.3 0.0
24/05:00pm 17.4 14.8 7.7 53 4.9 ENE 11 17 6 9 1028.1 1028.1 0.0
24/04:30pm 18.4 15.4 7.5 49 5.5 ENE 13 19 7 10 1028.1 1028.1 0.0
24/04:00pm 18.0 14.9 7.4 50 5.3 ENE 13 19 7 10 1028.0 1028.0 0.0
24/03:30pm 18.1 14.7 7.5 50 5.4 ENE 15 20 8 11 1028.0 1028.0 0.0
24/03:00pm 19.3 16.4 8.3 49 5.7 NE 13 19 7 10 1028.3 1028.3 0.0
24/02:30pm 19.2 15.5 7.9 48 5.8 ENE 17 24 9 13 1028.1 1028.1 0.0
24/02:00pm 19.1 15.8 8.1 49 5.7 NE 15 20 8 11 1028.2 1028.2 0.0
24/01:30pm 18.7 16.2 8.1 50 5.4 NE 11 20 6 11 1028.7 1028.7 0.0
24/01:00pm 16.5 13.6 8.0 57 4.3 ENE 13 19 7 10 1028.6 1028.6 0.0
24/12:30pm 16.3 12.6 7.8 57 4.3 NE 17 20 9 11 1029.0 1029.0 0.0
24/12:00pm 15.5 11.4 7.8 60 3.8 ENE 19 24 10 13 1029.4 1029.4 0.0
24/11:30am 15.1 10.8 7.2 59 3.9 ENE 19 24 10 13 1029.7 1029.7 0.0
24/11:00am 14.7 11.7 7.7 63 3.5 NE 13 19 7 10 1030.2 1030.2 0.0
24/10:30am 12.5 9.9 7.6 72 2.4 ENE 11 15 6 8 1030.3 1030.3 0.0
24/10:00am 11.3 8.7 7.6 78 1.8 ENE 11 15 6 8 1030.3 1030.3 0.0
24/09:30am 10.3 7.2 7.2 81 1.5 E 13 17 7 9 1030.2 1030.2 0.0
24/09:00am 9.8 7.2 7.6 86 1.0 ENE 11 13 6 7 1030.1 1030.1 0.0
24/08:30am 8.5 6.1 7.0 90 0.7 ENE 9 11 5 6 1030.1 1030.1 0.0
24/08:00am 7.1 4.1 6.0 93 0.5 E 11 13 6 7 1029.8 1029.8 0.0
24/07:30am 6.1 2.8 4.7 91 0.6 ENE 11 11 6 6 1029.6 1029.6 0.0
24/07:00am 6.0 2.3 4.6 91 0.6 ENE 13 13 7 7 1029.5 1029.5 0.0
24/06:30am 5.9 2.6 4.5 91 0.6 ENE 11 13 6 7 1029.3 1029.3 0.0
24/06:00am 6.5 2.9 5.1 91 0.6 ENE 13 15 7 8 1029.0 1029.0 0.0
24/05:30am 6.1 2.1 4.7 91 0.6 E 15 17 8 9 1028.7 1028.7 0.0
24/05:00am 6.4 3.2 4.9 90 0.7 ENE 11 15 6 8 1028.6 1028.6 0.0
24/04:30am 6.2 3.0 5.2 93 0.4 ENE 11 13 6 7 1028.5 1028.5 0.0
24/04:00am 4.7 1.2 3.7 93 0.4 E 11 13 6 7 1028.1 1028.1 0.0
24/03:30am 4.5 3.0 3.2 91 0.5 CALM 0 0 0 0 1028.3 1028.3 0.0
24/03:00am 5.3 4.0 4.0 91 0.5 CALM 0 0 0 0 1028.4 1028.4 0.0
24/02:30am 5.7 2.7 4.2 90 0.6 ESE 9 11 5 6 1028.4 1028.4 0.0
24/02:00am 5.1 2.3 3.1 87 0.8 ESE 7 11 4 6 1028.1 1028.1 0.0
24/01:30am 6.4 3.4 4.2 86 0.9 SE 9 9 5 5 1028.3 1028.3 0.0
24/01:00am 7.3 4.0 4.6 83 1.2 S 11 13 6 7 1028.5 1028.5 0.0
24/12:30am 8.1 4.9 5.2 82 1.3 SSE 11 13 6 7 1028.6 1028.6 0.0
24/12:00am 8.7 5.2 5.3 79 1.5 SSE 13 13 7 7 1028.7 1028.7 0.0
 
Date/Time
EST
Temp
°C
App
Temp
°C
Dew
Point
Rel
Hum
%
Delta-T
°C
Wind Press
QNH
hPa
Press
MSL
hPa
Rain
since 9 am
mm
Dir
 
Spd
km/h
Gust
km/h
Spd
kts
Gust
kts
23/11:30pm 9.6 5.8 5.8 77 1.7 SE 15 17 8 9 1028.6 1028.6 0.0
23/11:00pm 10.0 6.3 6.2 77 1.8 SSE 15 17 8 9 1028.7 1028.7 0.0
23/10:30pm 10.3 6.6 6.3 76 1.9 SSE 15 17 8 9 1028.8 1028.8 0.0
23/10:00pm 9.9 6.2 6.2 78 1.7 SE 15 17 8 9 1028.6 1028.6 0.0
23/09:30pm 10.1 6.5 6.8 80 1.6 SE 15 17 8 9 1028.8 1028.8 0.0
23/09:00pm 10.1 6.9 6.8 80 1.5 SSE 13 15 7 8 1029.1 1029.1 0.0
23/08:30pm 10.5 7.3 6.8 78 1.8 SSE 13 15 7 8 1029.0 1029.0 0.0
23/08:00pm 11.0 8.2 6.9 76 1.9 SSE 11 13 6 7 1028.9 1028.9 0.0
23/07:30pm 11.3 8.2 7.2 76 2.0 SSE 13 15 7 8 1028.6 1028.6 0.0
23/07:00pm 11.7 9.0 7.2 74 2.2 S 11 13 6 7 1028.6 1028.6 0.0
23/06:30pm 12.3 9.1 7.0 70 2.6 SSE 13 13 7 7 1028.2 1028.2 0.0
23/06:00pm 13.4 10.2 6.7 64 3.2 SSE 13 15 7 8 1027.9 1027.9 0.0
23/05:30pm 15.1 12.7 6.9 58 4.0 SSE 9 11 5 6 1027.9 1027.9 0.0
23/05:00pm 16.8 14.3 6.6 51 5.0 SE 9 13 5 7 1027.9 1027.9 0.0
23/04:30pm 17.0 13.6 5.9 48 5.4 SE 13 17 7 9 1027.8 1027.8 0.0
23/04:00pm 18.2 15.2 5.8 44 6.1 ESE 11 15 6 8 1027.8 1027.8 0.0
23/03:30pm 18.2 16.2 6.4 46 5.9 SSE 6 17 3 9 1028.0 1028.0 0.0
23/03:00pm 18.2 15.7 6.4 46 5.8 ESE 9 17 5 9 1028.0 1028.0 0.0
23/02:30pm 18.4 16.5 6.6 46 5.9 N 6 13 3 7 1028.0 1028.0 0.0
23/02:00pm 18.1 15.8 7.5 50 5.3 SE 9 13 5 7 1028.2 1028.2 0.0
23/01:30pm 17.4 15.4 6.9 50 5.2 SSW 7 11 4 6 1028.6 1028.6 0.0
23/01:00pm 17.0 15.4 8.2 56 4.5 SE 6 9 3 5 1028.9 1028.9 0.0
23/12:30pm 16.4 15.1 7.6 56 4.4 SE 4 9 2 5 1029.3 1029.3 0.0
23/12:00pm 15.9 14.2 8.2 60 3.9 SE 7 13 4 7 1029.8 1029.8 0.0
23/11:30am 15.4 13.2 7.9 61 3.8 ESE 9 13 5 7 1030.4 1030.4 0.0
23/11:00am 14.1 12.2 7.4 64 3.3 SSE 7 9 4 5 1030.5 1030.5 0.0
23/10:30am 12.8 10.3 6.6 66 3.0 SSE 9 15 5 8 1030.7 1030.7 0.0
23/10:00am 11.5 8.7 7.0 74 2.1 SSE 11 15 6 8 1030.9 1030.9 0.0
23/09:30am 9.8 6.4 6.0 77 1.8 SSE 13 17 7 9 1031.0 1031.0 0.0
23/09:00am 8.7 6.1 6.3 85 1.1 S 9 15 5 8 1030.7 1030.7 0.2
23/08:30am 6.9 4.2 5.8 93 0.5 SW 9 11 5 6 1030.5 1030.5 0.2
23/08:00am 5.3 2.4 4.6 95 0.3 WSW 9 11 5 6 1030.1 1030.1 0.2
23/07:30am 3.7 0.9 3.0 95 0.3 SSW 7 9 4 5 1029.8 1029.8 0.2
23/07:00am 3.6 0.3 2.7 94 0.4 SSW 9 11 5 6 1029.4 1029.4 0.2
23/06:30am 3.9 0.3 3.0 94 0.4 SW 11 13 6 7 1029.2 1029.2 0.2
23/06:00am 4.2 0.7 3.3 94 0.4 SW 11 11 6 6 1028.8 1028.8 0.2
23/05:30am 4.9 1.5 4.0 94 0.4 SSW 11 13 6 7 1028.6 1028.6 0.2
23/05:00am 5.0 1.6 4.0 93 0.4 S 11 13 6 7 1028.3 1028.3 0.2
23/04:30am 5.4 1.7 4.5 94 0.4 SSW 13 13 7 7 1028.2 1028.2 0.2
23/04:00am 6.0 2.4 5.1 94 0.4 SW 13 15 7 8 1028.4 1028.4 0.2
23/03:30am 6.1 2.9 5.1 93 0.4 SW 11 13 6 7 1028.1 1028.1 0.2
23/03:00am 6.2 3.0 5.2 93 0.4 WSW 11 13 6 7 1028.1 1028.1 0.0
23/02:30am 6.3 3.5 5.1 92 0.5 SW 9 9 5 5 1028.1 1028.1 0.0
23/02:00am 6.9 3.8 5.4 90 0.7 SW 11 13 6 7 1028.0 1028.0 0.0
23/01:30am 8.0 5.8 6.1 88 0.9 S 7 11 4 6 1028.2 1028.2 0.0
23/01:00am 9.3 6.2 7.4 88 0.9 S 13 17 7 9 1028.1 1028.1 0.0
23/12:30am 8.5 5.5 7.6 94 0.4 S 13 19 7 10 1028.1 1028.1 0.0
23/12:00am 7.7 4.9 6.8 94 0.4 SSW 11 13 6 7 1028.3 1028.3 0.0
 
Date/Time
EST
Temp
°C
App
Temp
°C
Dew
Point
Rel
Hum
%
Delta-T
°C
Wind Press
QNH
hPa
Press
MSL
hPa
Rain
since 9 am
mm
Dir
 
Spd
km/h
Gust
km/h
Spd
kts
Gust
kts
22/11:30pm 7.9 5.1 6.8 93 0.5 WSW 11 13 6 7 1028.4 1028.4 0.0
22/11:00pm 8.3 5.5 7.1 92 0.6 SW 11 13 6 7 1028.5 1028.5 0.0
22/10:30pm 8.6 5.9 7.4 92 0.6 WSW 11 13 6 7 1028.6 1028.6 0.0
22/10:00pm 8.7 6.0 7.5 92 0.6 WSW 11 13 6 7 1028.7 1028.7 0.0
22/09:30pm 8.8 6.2 7.6 92 0.6 WSW 11 13 6 7 1028.7 1028.7 0.0
22/09:00pm 9.2 6.5 7.5 89 0.8 SW 11 11 6 6 1028.7 1028.7 0.0
22/08:30pm 9.6 7.0 7.9 89 0.8 WSW 11 13 6 7 1028.7 1028.7 0.0
22/08:00pm 9.9 7.0 8.0 88 0.9 WSW 13 13 7 7 1028.5 1028.5 0.0
22/07:30pm 10.4 7.9 8.2 86 1.1 WSW 11 13 6 7 1028.4 1028.4 0.0
22/07:00pm 11.2 8.7 8.4 83 1.4 WSW 11 13 6 7 1028.1 1028.1 0.0
22/06:30pm 11.7 9.3 8.6 81 1.5 WSW 11 13 6 7 1027.8 1027.8 0.0
22/06:00pm 12.8 9.7 8.7 76 2.0 SW 15 17 8 9 1027.3 1027.3 0.0
22/05:30pm 13.7 10.6 8.7 72 2.5 SSW 15 19 8 10 1027.0 1027.0 0.0
22/05:00pm 14.7 10.9 8.9 68 2.9 SW 19 26 10 14 1026.8 1026.8 0.0
22/04:30pm 15.2 10.8 9.1 67 3.1 SSW 22 30 12 16 1026.6 1026.5 0.0
22/04:00pm 15.4 11.0 9.1 66 3.2 SSW 22 32 12 17 1026.4 1026.3 0.0
22/03:30pm 15.4 11.0 8.9 65 3.3 SSW 22 33 12 18 1026.4 1026.3 0.0
22/03:00pm 15.3 10.5 8.8 65 3.3 SSW 24 32 13 17 1026.3 1026.2 0.0
22/02:30pm 15.4 10.6 8.9 65 3.3 SSW 24 32 13 17 1026.3 1026.2 0.0
22/02:00pm 15.4 10.7 9.1 66 3.2 SW 24 37 13 20 1026.2 1026.1 0.0
22/01:30pm 14.6 9.6 8.1 65 3.3 SSW 24 32 13 17 1026.4 1026.3 0.0
22/01:00pm 15.1 10.2 8.6 65 3.3 SW 24 33 13 18 1026.7 1026.6 0.0
22/12:30pm 15.0 10.6 8.9 67 3.1 SW 22 33 12 18 1026.9 1026.9 0.0
22/12:00pm 14.7 10.5 8.4 66 3.2 SW 20 26 11 14 1027.3 1027.3 0.0
22/11:30am 14.5 11.1 9.1 70 2.8 SW 17 28 9 15 1027.7 1027.7 0.0
22/11:00am 13.6 9.3 7.8 68 2.9 SSW 20 24 11 13 1027.6 1027.6 0.0
22/10:30am 13.2 8.6 8.3 72 2.4 SW 22 30 12 16 1027.6 1027.6 0.0
22/10:00am 12.3 7.3 8.0 75 2.1 SSW 24 32 13 17 1027.3 1027.3 0.0
22/09:30am 11.5 6.4 7.6 77 1.9 SSW 24 32 13 17 1027.2 1027.2 0.0
22/09:00am 10.3 6.0 7.0 80 1.6 SW 19 26 10 14 1027.2 1027.2 1.6
22/08:30am 8.8 5.2 6.6 86 1.0 SW 15 20 8 11 1026.9 1026.9 1.6
22/08:00am 7.5 4.1 6.1 91 0.6 SW 13 19 7 10 1026.5 1026.4 1.6
22/07:30am 6.4 2.5 5.4 93 0.4 WSW 15 17 8 9 1025.9 1025.8 1.6
22/07:00am 6.2 2.6 5.2 93 0.4 WSW 13 17 7 9 1025.7 1025.6 1.6
22/06:30am 6.4 3.2 5.2 92 0.5 WSW 11 13 6 7 1025.2 1025.1 1.6
22/06:00am 7.0 3.9 5.5 90 0.7 SW 11 15 6 8 1024.8 1024.7 1.6
22/05:30am 7.7 4.3 5.7 87 0.9 SW 13 17 7 9 1024.5 1024.4 1.6
22/05:00am 8.6 4.9 6.2 85 1.1 SSW 15 20 8 11 1024.5 1024.4 1.6
22/04:30am 8.8 4.7 6.4 85 1.1 SW 17 20 9 11 1024.6 1024.5 1.6
22/04:00am 8.7 4.6 6.3 85 1.1 SW 17 24 9 13 1024.5 1024.4 1.6
22/03:30am 8.4 4.4 6.5 88 0.9 SW 17 24 9 13 1024.5 1024.4 1.6
22/03:00am 7.5 4.1 6.1 91 0.6 WSW 13 17 7 9 1024.6 1024.5 1.6
22/02:30am 7.5 4.1 6.0 90 0.7 SW 13 17 7 9 1024.7 1024.6 1.6
22/02:00am 7.8 4.1 6.1 89 0.8 SW 15 17 8 9 1024.8 1024.7 1.6
22/01:30am 8.1 4.4 6.2 88 0.9 SW 15 20 8 11 1024.7 1024.6 1.6
22/01:00am 8.3 5.0 6.4 88 0.9 WSW 13 17 7 9 1024.8 1024.7 1.4
22/12:30am 8.8 5.5 6.6 86 1.0 SW 13 19 7 10 1024.9 1024.8 1.4
22/12:00am 8.9 5.7 6.7 86 1.0 WSW 13 19 7 10 1024.9 1024.8 1.4
 
Date/Time
EST
Temp
°C
App
Temp
°C
Dew
Point
Rel
Hum
%
Delta-T
°C
Wind Press
QNH
hPa
Press
MSL
hPa
Rain
since 9 am
mm
Dir
 
Spd
km/h
Gust
km/h
Spd
kts
Gust
kts
21/11:30pm 9.0 5.4 6.8 86 1.0 WSW 15 19 8 10 1025.1 1025.0 1.4
21/11:00pm 9.4 5.8 6.8 84 1.2 WSW 15 20 8 11 1025.2 1025.1 1.4
21/10:30pm 9.9 5.6 6.8 81 1.5 WSW 19 24 10 13 1025.0 1024.9 1.4
21/10:00pm 10.3 6.8 7.0 80 1.6 WSW 15 19 8 10 1025.0 1024.9 1.4
21/09:30pm 10.5 6.2 7.0 79 1.7 SW 19 24 10 13 1024.8 1024.7 1.4
21/09:00pm 10.2 7.2 7.6 84 1.2 SW 13 19 7 10 1024.6 1024.5 1.4
21/08:30pm 9.7 7.1 7.6 87 1.0 WSW 11 13 6 7 1024.4 1024.3 1.4
21/08:00pm 9.4 6.6 7.0 85 1.1 SW 11 13 6 7 1024.3 1024.2 1.4
21/07:30pm 10.2 6.7 7.3 82 1.4 SW 15 19 8 10 1024.0 1023.9 1.4

Other Formats:

Comma delimited format used in spreadsheet applications
http://www.bom.gov.au/fwo/IDN60801/IDN60801.95695.axf

JavaScript Object Notation format (JSON) in row-major order
http://www.bom.gov.au/fwo/IDN60801/IDN60801.95695.json